Time;durP1;ratioP1;P1;durP2;ratioP2;P2;SDS_P1;SDS_P2;PMS_P1;PMS_P2;Temp;Humidity;BMP_temperature;BMP_pressure;BME280_temperature;BME280_humidity;BME280_pressure;Samples;Min_cycle;Max_cycle;Signal;HPM_P1;HPM_P2
2021/04/19 00:01:30;;;;;;;16.77;15.07;;;;;;;6.92;66.97;95785.19;5030975;28;20573;-80
2021/04/19 00:03:56;;;;;;;16.90;15.17;;;;;;;6.89;66.91;95782.13;5031566;28;20198;-81
2021/04/19 00:06:22;;;;;;;18.50;16.00;;;;;;;6.89;67.33;95779.56;5030554;28;20851;-81
2021/04/19 00:08:49;;;;;;;16.07;14.43;;;;;;;6.91;67.03;95775.91;5030612;28;20222;-82
2021/04/19 00:11:14;;;;;;;17.03;15.00;;;;;;;6.90;67.25;95781.19;5030247;28;20229;-82
2021/04/19 00:13:41;;;;;;;16.83;15.03;;;;;;;6.94;67.15;95775.59;5030763;28;20214;-80
2021/04/19 00:16:07;;;;;;;16.67;14.83;;;;;;;6.93;67.47;95778.28;5030480;28;20218;-80
2021/04/19 00:18:33;;;;;;;17.63;15.70;;;;;;;6.91;67.60;95775.91;5031075;28;20867;-81
2021/04/19 00:20:59;;;;;;;17.07;15.13;;;;;;;6.92;67.68;95779.28;5030858;28;20198;-81
2021/04/19 00:23:25;;;;;;;17.53;15.20;;;;;;;6.94;67.05;95778.16;5030917;28;20232;-81
2021/04/19 00:25:51;;;;;;;16.73;14.93;;;;;;;6.94;66.91;95775.59;5030443;28;20249;-80
2021/04/19 00:28:17;;;;;;;17.10;14.93;;;;;;;6.95;67.00;95766.16;5030502;28;20233;-80
2021/04/19 00:30:43;;;;;;;16.93;14.93;;;;;;;6.96;66.90;95765.19;5030251;28;20571;-84
2021/04/19 00:33:10;;;;;;;16.17;14.47;;;;;;;7.00;67.22;95769.06;5030876;28;20612;-79
2021/04/19 00:35:36;;;;;;;16.70;14.90;;;;;;;6.97;67.15;95766.81;5030699;28;20229;-83
2021/04/19 00:38:02;;;;;;;17.23;14.33;;;;;;;6.91;67.17;95767.44;5031431;28;20198;-82
2021/04/19 00:40:31;;;;;;;19.03;15.13;;;;;;;6.80;67.62;95767.66;5030925;28;20194;-82
2021/04/19 00:42:57;;;;;;;18.27;16.37;;;;;;;6.74;67.55;95758.78;5031525;28;20210;-81
2021/04/19 00:45:24;;;;;;;17.47;15.20;;;;;;;6.66;67.83;95761.31;5030410;28;20229;-81
2021/04/19 00:47:50;;;;;;;16.63;14.93;;;;;;;6.68;67.80;95746.63;5029816;28;20228;-82
2021/04/19 00:50:20;;;;;;;16.10;14.40;;;;;;;6.61;68.61;95748.16;5030492;28;20205;-82
2021/04/19 00:52:47;;;;;;;16.10;14.33;;;;;;;6.65;68.45;95741.78;5030530;28;20198;-81
2021/04/19 00:55:16;;;;;;;16.20;14.50;;;;;;;6.64;68.11;95752.19;5031854;28;20697;-82
2021/04/19 00:57:43;;;;;;;16.80;14.63;;;;;;;6.66;68.38;95755.38;5034529;28;20202;-80
2021/04/19 01:00:12;;;;;;;17.03;15.17;;;;;;;6.74;68.18;95758.00;5034828;28;20206;-81
2021/04/19 01:02:39;;;;;;;15.93;14.23;;;;;;;6.77;68.29;95753.38;5034850;28;20190;-82
2021/04/19 01:05:09;;;;;;;17.03;15.20;;;;;;;6.82;67.84;95753.75;5034772;28;20237;-82
2021/04/19 01:07:35;;;;;;;16.53;14.27;;;;;;;6.84;67.96;95759.53;5034417;28;20217;-82
2021/04/19 01:10:01;;;;;;;17.57;15.00;;;;;;;6.84;67.80;95753.59;5033769;28;20218;-81
2021/04/19 01:12:27;;;;;;;16.27;14.57;;;;;;;6.82;68.08;95745.28;5034834;28;20197;-82
2021/04/19 01:14:53;;;;;;;15.50;13.90;;;;;;;6.77;67.96;95753.38;5035010;28;20221;-81
2021/04/19 01:17:19;;;;;;;18.00;15.23;;;;;;;6.78;67.80;95746.53;5034583;28;20250;-82
2021/04/19 01:19:45;;;;;;;16.30;14.60;;;;;;;6.79;68.08;95750.69;5035195;28;20258;-81
2021/04/19 01:22:12;;;;;;;16.53;14.83;;;;;;;6.81;68.36;95749.59;5035191;28;20218;-82
2021/04/19 01:24:38;;;;;;;18.53;14.70;;;;;;;6.76;68.82;95743.31;5034961;28;20226;-84
2021/04/19 01:27:04;;;;;;;15.67;14.03;;;;;;;6.80;68.31;95747.19;5034974;28;20253;-81
2021/04/19 01:29:30;;;;;;;15.93;14.23;;;;;;;6.77;68.68;95747.47;5034470;28;20205;-83
2021/04/19 01:31:56;;;;;;;16.63;14.90;;;;;;;6.83;68.25;95747.69;5034192;28;20198;-82
2021/04/19 01:34:22;;;;;;;16.20;14.50;;;;;;;6.86;68.23;95747.41;5035011;28;20194;-82
2021/04/19 01:36:48;;;;;;;17.43;15.53;;;;;;;6.88;68.27;95747.25;5034236;28;20201;-83
2021/04/19 01:39:17;;;;;;;15.97;14.27;;;;;;;6.85;68.59;95747.53;5034301;28;20202;-80
2021/04/19 01:41:44;;;;;;;16.73;14.93;;;;;;;6.89;68.05;95751.41;5034502;28;20653;-85
2021/04/19 01:44:10;;;;;;;16.40;14.60;;;;;;;6.86;68.61;95747.41;5034671;28;20198;-81
2021/04/19 01:46:36;;;;;;;16.57;14.77;;;;;;;6.85;68.53;95750.91;5033166;28;20217;-80
2021/04/19 01:49:03;;;;;;;16.10;14.03;;;;;;;6.83;68.61;95745.13;5031408;28;20256;-82
2021/04/19 01:51:29;;;;;;;16.10;14.40;;;;;;;6.84;68.41;95745.94;5033839;28;20277;-83
2021/04/19 01:53:55;;;;;;;15.87;14.17;;;;;;;6.79;68.51;95751.50;5033475;28;20202;-82
2021/04/19 01:56:21;;;;;;;16.23;14.53;;;;;;;6.81;68.48;95753.91;5034018;28;20268;-82
2021/04/19 01:58:47;;;;;;;15.30;13.70;;;;;;;6.81;68.34;95752.16;5034200;28;20586;-81
2021/04/19 02:01:13;;;;;;;16.37;14.67;;;;;;;6.73;69.08;95754.66;5033983;28;20202;-81
2021/04/19 02:03:49;;;;;;;15.97;14.20;;;;;;;6.75;68.97;95754.47;5033965;28;20198;-82
2021/04/19 02:06:23;;;;;;;15.77;14.13;;;;;;;6.67;69.08;95745.00;5033199;28;20229;-82
2021/04/19 02:08:55;;;;;;;16.27;14.43;;;;;;;6.67;69.28;95746.78;5033822;28;20225;-81
2021/04/19 02:11:32;;;;;;;17.47;14.93;;;;;;;6.62;69.98;95743.84;5033593;28;20233;-82
2021/04/19 02:14:04;;;;;;;16.87;14.77;;;;;;;6.67;69.65;95741.66;5015989;28;21263;-80
2021/04/19 02:16:45;;;;;;;16.77;15.00;;;;;;;6.68;69.38;95746.63;5031433;28;20264;-80
2021/04/19 02:19:17;;;;;;;15.90;14.20;;;;;;;6.63;69.70;95748.00;5012860;28;20329;-83
2021/04/19 02:21:47;;;;;;;16.23;14.53;;;;;;;6.65;69.50;95749.47;5016034;28;20246;-81
2021/04/19 02:24:18;;;;;;;15.97;14.27;;;;;;;6.71;69.17;95743.78;5034182;28;20220;-81
2021/04/19 02:26:50;;;;;;;15.97;14.13;;;;;;;6.68;69.56;95741.50;5033540;28;20205;-80
2021/04/19 02:29:19;;;;;;;16.10;14.40;;;;;;;6.69;70.02;95744.88;5033683;28;20206;-81
2021/04/19 02:31:52;;;;;;;16.00;14.30;;;;;;;6.67;69.94;95739.91;5033902;28;20210;-83
2021/04/19 02:34:20;;;;;;;16.40;14.43;;;;;;;6.62;69.92;95741.28;5033736;28;20202;-82
2021/04/19 02:36:50;;;;;;;16.63;14.87;;;;;;;6.58;70.65;95736.47;5033459;28;20197;-83
2021/04/19 02:39:20;;;;;;;17.67;15.00;;;;;;;6.61;70.18;95737.91;5033038;28;20252;-82
2021/04/19 02:41:52;;;;;;;16.43;14.73;;;;;;;6.62;69.93;95731.84;5032852;28;20206;-81
2021/04/19 02:44:20;;;;;;;15.87;14.17;;;;;;;6.62;70.01;95734.41;5032690;28;20199;-81
2021/04/19 02:46:49;;;;;;;16.87;15.07;;;;;;;6.66;70.02;95733.16;5033124;28;20260;-80
2021/04/19 02:49:16;;;;;;;15.97;14.27;;;;;;;6.72;69.77;95736.91;5033206;28;20206;-80
2021/04/19 02:51:43;;;;;;;16.47;14.77;;;;;;;6.76;69.77;95731.31;5033256;28;20206;-80
2021/04/19 02:54:11;;;;;;;16.87;15.07;;;;;;;6.75;69.65;95739.13;5033260;28;20194;-82
2021/04/19 02:56:37;;;;;;;16.70;14.80;;;;;;;6.74;70.08;95732.41;5033104;28;20194;-82
2021/04/19 02:59:07;;;;;;;16.17;14.47;;;;;;;6.73;70.06;95734.19;5032723;28;20666;-82
2021/04/19 03:01:35;;;;;;;17.50;14.63;;;;;;;6.74;70.17;95732.41;5032676;28;20194;-81
2021/04/19 03:04:06;;;;;;;16.80;15.00;;;;;;;6.72;70.15;95721.53;5032930;28;20205;-82
2021/04/19 03:06:35;;;;;;;17.37;15.57;;;;;;;6.74;70.12;95722.19;5032855;28;20198;-82
2021/04/19 03:09:03;;;;;;;17.77;15.53;;;;;;;6.70;70.37;95728.56;5032457;28;20222;-83
2021/04/19 03:11:34;;;;;;;16.60;14.53;;;;;;;6.68;70.42;95726.16;5031656;28;20222;-82
2021/04/19 03:14:04;;;;;;;16.47;14.77;;;;;;;6.68;70.61;95713.38;5033266;28;20213;-81
2021/04/19 03:16:33;;;;;;;17.17;14.83;;;;;;;6.70;70.08;95723.44;5033386;28;20243;-83
2021/04/19 03:19:03;;;;;;;17.07;14.73;;;;;;;6.74;70.45;95717.88;5032602;28;20198;-80
2021/04/19 03:21:31;;;;;;;17.53;14.90;;;;;;;6.70;70.62;95721.69;5032191;28;20198;-80
2021/04/19 03:24:00;;;;;;;16.83;15.03;;;;;;;6.72;70.79;95721.53;5032572;28;20683;-80
2021/04/19 03:26:29;;;;;;;17.20;15.40;;;;;;;6.74;70.68;95728.09;5032496;28;20240;-82
2021/04/19 03:28:57;;;;;;;16.97;15.17;;;;;;;6.72;70.32;95722.34;5033038;28;20260;-82
2021/04/19 03:31:25;;;;;;;18.20;15.57;;;;;;;6.71;70.88;95727.63;5031752;28;20580;-81
2021/04/19 03:33:53;;;;;;;17.47;15.57;;;;;;;6.75;70.94;95723.78;5032654;28;20202;-83
2021/04/19 03:36:23;;;;;;;16.97;15.20;;;;;;;6.71;70.69;95723.31;5032060;28;20790;-82
2021/04/19 03:38:50;;;;;;;15.97;14.27;;;;;;;6.75;70.47;95719.47;5031856;28;20289;-81
2021/04/19 03:41:19;;;;;;;19.07;15.80;;;;;;;6.76;70.42;95726.19;5031053;28;20205;-82
2021/04/19 03:43:51;;;;;;;16.43;14.73;;;;;;;6.80;70.33;95721.59;5031775;28;20602;-83
2021/04/19 03:46:18;;;;;;;16.20;14.50;;;;;;;6.85;69.90;95721.94;5031665;28;20222;-82
2021/04/19 03:48:47;;;;;;;17.10;15.30;;;;;;;6.86;69.82;95726.13;5031293;28;20225;-81
2021/04/19 03:51:17;;;;;;;19.33;14.93;;;;;;;6.84;69.99;95720.34;5032344;28;20199;-81
2021/04/19 03:53:46;;;;;;;17.10;15.20;;;;;;;6.85;69.78;95727.88;5032309;28;20658;-82
2021/04/19 03:56:13;;;;;;;16.83;15.13;;;;;;;6.86;69.78;95726.13;5032384;28;20226;-81
2021/04/19 03:58:40;;;;;;;18.03;15.53;;;;;;;6.87;70.28;95730.28;5031480;28;20202;-81
2021/04/19 04:01:07;;;;;;;17.57;15.77;;;;;;;6.90;70.24;95732.53;5029790;28;20287;-79
2021/04/19 04:03:36;;;;;;;18.17;15.43;;;;;;;6.92;69.63;95735.75;5028712;28;20229;-81
2021/04/19 04:06:03;;;;;;;18.07;15.27;;;;;;;6.88;69.81;95737.81;5031002;28;20222;-80
2021/04/19 04:08:31;;;;;;;19.10;16.07;;;;;;;6.87;69.98;95740.53;5030891;28;20276;-81
2021/04/19 04:10:58;;;;;;;17.93;15.57;;;;;;;6.82;70.18;95733.28;5030096;28;20237;-83
2021/04/19 04:13:24;;;;;;;18.13;16.10;;;;;;;6.84;70.16;95740.81;5030852;28;20209;-81
2021/04/19 04:15:52;;;;;;;19.00;15.63;;;;;;;6.78;70.37;95742.19;5031333;28;20225;-81
2021/04/19 04:18:18;;;;;;;18.33;15.67;;;;;;;6.77;70.27;95750.03;5032065;28;20202;-81
2021/04/19 04:20:45;;;;;;;17.73;15.77;;;;;;;6.81;70.33;95749.59;5030581;28;20693;-81
2021/04/19 04:23:11;;;;;;;17.67;15.80;;;;;;;6.81;70.24;95756.47;5030505;28;20194;-83
2021/04/19 04:25:38;;;;;;;18.03;15.73;;;;;;;6.80;70.71;95747.97;5030571;28;20230;-83
2021/04/19 04:28:05;;;;;;;19.67;15.90;;;;;;;6.80;70.47;95754.84;5034794;28;20232;-84
2021/04/19 04:30:33;;;;;;;18.70;16.17;;;;;;;6.81;70.80;95749.59;5031092;28;20214;-82
2021/04/19 04:33:02;;;;;;;17.27;15.47;;;;;;;6.76;71.54;95751.78;5032044;28;20693;-83
2021/04/19 04:35:28;;;;;;;18.70;15.50;;;;;;;6.73;71.50;95748.75;5031904;28;20222;-82
2021/04/19 04:37:54;;;;;;;17.93;15.67;;;;;;;6.73;71.17;95746.97;5032349;28;20198;-82
2021/04/19 04:40:20;;;;;;;18.37;15.70;;;;;;;6.73;71.30;95749.53;5032135;28;20209;-83
2021/04/19 04:42:50;;;;;;;19.20;16.53;;;;;;;6.69;71.57;95753.34;5030971;28;20198;-81
2021/04/19 04:45:16;;;;;;;20.83;18.43;;;;;;;6.79;70.92;95756.59;5012237;28;20349;-82
2021/04/19 04:47:48;;;;;;;19.07;16.40;;;;;;;6.82;71.30;95751.19;5026401;28;20268;-81
2021/04/19 04:50:19;;;;;;;19.70;16.67;;;;;;;6.85;71.35;95750.91;5030306;28;20620;-81
2021/04/19 04:52:51;;;;;;;19.00;16.73;;;;;;;6.86;71.19;95754.25;5022227;28;20269;-82
2021/04/19 04:55:19;;;;;;;22.70;17.97;;;;;;;6.82;71.10;95747.84;5025293;28;20226;-80
2021/04/19 04:57:47;;;;;;;19.00;16.13;;;;;;;6.79;71.38;95751.50;5024986;28;20268;-81
2021/04/19 05:00:15;;;;;;;20.00;15.83;;;;;;;6.86;71.08;95746.59;5028870;28;20198;-81
2021/04/19 05:02:43;;;;;;;18.37;15.63;;;;;;;6.87;71.11;95754.13;5026782;28;20203;-81
2021/04/19 05:05:11;;;;;;;19.20;15.43;;;;;;;6.83;71.26;95749.44;5028140;28;20240;-79
2021/04/19 05:07:38;;;;;;;18.50;16.50;;;;;;;6.86;70.75;95746.59;5027382;28;20287;-81
2021/04/19 05:10:06;;;;;;;18.53;16.53;;;;;;;6.85;71.10;95750.09;5025487;28;20802;-79
2021/04/19 05:12:32;;;;;;;18.17;16.27;;;;;;;6.89;70.87;95749.66;5026149;28;20260;-80
2021/04/19 05:15:00;;;;;;;17.20;14.90;;;;;;;6.90;71.54;95748.72;5024654;28;20226;-79
2021/04/19 05:17:26;;;;;;;19.63;16.70;;;;;;;6.93;71.13;95745.81;5027032;28;20194;-80
2021/04/19 05:19:52;;;;;;;18.07;16.17;;;;;;;6.90;71.17;95745.34;5027696;28;20289;-80
2021/04/19 05:22:19;;;;;;;17.43;15.33;;;;;;;6.96;70.88;95751.59;5028834;28;20194;-80
2021/04/19 05:24:45;;;;;;;23.60;17.23;;;;;;;7.01;70.66;95755.31;5029435;28;20222;-81
2021/04/19 05:27:12;;;;;;;19.60;16.67;;;;;;;6.99;70.63;95744.44;5022086;28;20246;-81
2021/04/19 05:29:39;;;;;;;19.47;16.10;;;;;;;7.05;70.73;95754.06;5028944;28;20263;-81
2021/04/19 05:32:08;;;;;;;18.20;16.03;;;;;;;7.12;70.33;95744.81;5028455;28;20191;-80
2021/04/19 05:34:34;;;;;;;17.50;15.40;;;;;;;7.17;70.44;95752.06;5028574;28;20717;-80
2021/04/19 05:37:02;;;;;;;18.50;16.37;;;;;;;7.16;70.61;95753.00;5024879;28;20202;-81
2021/04/19 05:39:28;;;;;;;19.10;16.50;;;;;;;7.16;70.55;95748.69;5029065;28;20202;-80
2021/04/19 05:41:55;;;;;;;17.93;16.03;;;;;;;7.19;70.51;95752.72;5031136;28;20198;-81
2021/04/19 05:44:21;;;;;;;19.37;16.37;;;;;;;7.15;70.50;95757.31;5032507;28;20284;-80
2021/04/19 05:46:47;;;;;;;21.90;16.87;;;;;;;7.09;70.47;95752.81;5031450;28;20205;-80
2021/04/19 05:49:14;;;;;;;20.23;16.47;;;;;;;7.15;70.83;95753.97;5031434;28;20229;-79
2021/04/19 05:51:43;;;;;;;20.37;16.93;;;;;;;7.19;70.29;95752.72;5032274;28;20289;-79
2021/04/19 05:54:10;;;;;;;21.90;16.60;;;;;;;7.28;70.33;95752.63;5032139;28;20205;-81
2021/04/19 05:57:11;;;;;;;20.57;16.37;;;;;;;7.28;69.89;95762.06;5031807;28;20617;-79
2021/04/19 05:59:48;;;;;;;17.43;15.30;;;;;;;7.34;70.03;95753.75;5031308;28;20212;-81
2021/04/19 06:02:21;;;;;;;19.70;15.90;;;;;;;7.46;69.95;95751.75;5031002;28;20578;-80
2021/04/19 06:04:51;;;;;;;15.90;14.20;;;;;;;7.58;71.47;95755.63;5033156;28;20226;-82
2021/04/19 06:07:23;;;;;;;19.83;15.30;;;;;;;7.73;70.89;95756.66;5031740;28;20856;-83
2021/04/19 06:09:54;;;;;;;19.20;14.30;;;;;;;7.89;72.30;95750.78;5031712;28;20249;-81
2021/04/19 06:12:25;;;;;;;15.67;12.63;;;;;;;8.25;74.05;95754.72;5032350;28;20208;-82
2021/04/19 06:14:53;;;;;;;15.80;13.73;;;;;;;8.47;71.09;95750.75;5032973;28;20219;-81
2021/04/19 06:17:20;;;;;;;18.10;15.37;;;;;;;8.46;67.13;95754.31;5029974;28;20198;-80
2021/04/19 06:19:47;;;;;;;17.87;15.73;;;;;;;8.23;67.15;95751.53;5028166;28;20260;-80
2021/04/19 06:22:15;;;;;;;19.40;16.37;;;;;;;8.12;67.95;95748.44;5031738;28;20891;-81
2021/04/19 06:24:46;;;;;;;18.93;15.97;;;;;;;8.14;67.78;95737.06;5031904;28;20226;-80
2021/04/19 06:27:16;;;;;;;19.40;16.13;;;;;;;8.18;67.92;95747.81;5031950;28;20202;-80
2021/04/19 06:29:42;;;;;;;20.27;16.13;;;;;;;8.20;67.54;95758.72;5029935;28;20256;-80
2021/04/19 06:32:09;;;;;;;19.00;15.83;;;;;;;8.24;67.45;95758.25;5030555;28;20209;-81
2021/04/19 06:34:35;;;;;;;20.90;16.37;;;;;;;8.14;67.78;95756.78;5032102;28;20214;-82
2021/04/19 06:37:06;;;;;;;19.00;16.43;;;;;;;8.15;68.45;95753.25;5031477;28;20209;-81
2021/04/19 06:39:32;;;;;;;15.73;13.63;;;;;;;8.20;71.21;95751.84;5023887;28;20198;-81
2021/04/19 06:41:59;;;;;;;17.50;15.60;;;;;;;8.35;69.24;95746.91;5029453;28;20663;-82
2021/04/19 06:44:26;;;;;;;17.80;15.13;;;;;;;8.44;70.45;95745.16;5029605;28;20202;-81
2021/04/19 06:46:54;;;;;;;17.37;14.63;;;;;;;8.57;70.33;95742.91;5031326;28;20228;-81
2021/04/19 06:49:22;;;;;;;17.57;15.40;;;;;;;8.61;69.20;95744.22;5030187;28;20968;-83
2021/04/19 06:51:49;;;;;;;17.97;15.80;;;;;;;8.71;68.47;95754.31;5030850;28;20206;-82
2021/04/19 06:54:15;;;;;;;16.97;15.17;;;;;;;8.93;68.43;95749.31;5029864;28;20194;-82
2021/04/19 06:56:43;;;;;;;17.03;14.57;;;;;;;9.09;68.95;95747.69;5031748;28;20197;-81
2021/04/19 06:59:11;;;;;;;20.83;15.90;;;;;;;9.08;66.30;95754.59;5023550;28;20276;-80
2021/04/19 07:01:38;;;;;;;21.30;16.27;;;;;;;8.99;66.36;95748.69;5027529;28;20356;-81
2021/04/19 07:04:06;;;;;;;19.50;16.33;;;;;;;9.00;66.18;95752.06;5029049;28;20198;-81
2021/04/19 07:06:34;;;;;;;20.60;16.43;;;;;;;8.95;66.32;95749.97;5028804;28;20226;-80
2021/04/19 07:09:04;;;;;;;18.17;16.27;;;;;;;8.84;66.43;95752.88;5029470;28;20701;-82
2021/04/19 07:11:36;;;;;;;19.60;17.07;;;;;;;8.82;66.91;95751.44;5028181;28;20905;-81
2021/04/19 07:14:03;;;;;;;18.13;15.93;;;;;;;8.84;67.07;95745.19;5030940;28;20721;-79
2021/04/19 07:16:30;;;;;;;17.80;15.90;;;;;;;8.85;66.92;95751.13;5025335;28;20218;-81
2021/04/19 07:18:56;;;;;;;18.20;16.27;;;;;;;8.95;66.53;95744.03;5031639;28;20240;-78
2021/04/19 07:21:24;;;;;;;19.77;17.53;;;;;;;8.93;66.59;95743.38;5028681;28;20202;-80
2021/04/19 07:23:50;;;;;;;21.63;16.10;;;;;;;8.93;67.06;95751.09;5028260;28;20202;-80
2021/04/19 07:26:16;;;;;;;18.53;16.00;;;;;;;8.82;66.37;95741.97;5029997;28;20242;-82
2021/04/19 07:28:43;;;;;;;20.30;16.60;;;;;;;8.78;66.63;95745.81;5030695;28;20226;-82
2021/04/19 07:31:11;;;;;;;18.97;15.70;;;;;;;8.79;67.06;95744.03;5030663;28;20224;-81
2021/04/19 07:33:38;;;;;;;18.97;16.43;;;;;;;8.81;66.67;95740.34;5030981;28;20209;-81
2021/04/19 07:36:28;;;;;;;21.03;16.30;;;;;;;8.89;66.69;95736.97;5030641;28;20320;-80
2021/04/19 07:38:55;;;;;;;22.33;16.90;;;;;;;8.93;66.63;95735.69;5030723;28;20213;-82
2021/04/19 07:41:22;;;;;;;22.03;16.20;;;;;;;9.05;66.42;95741.28;5031873;28;20256;-80
2021/04/19 07:43:49;;;;;;;19.70;17.27;;;;;;;9.12;65.96;95739.66;5031711;28;20194;-80
2021/04/19 07:46:17;;;;;;;17.73;15.83;;;;;;;9.23;66.05;95742.72;5030488;28;20218;-80
2021/04/19 07:48:46;;;;;;;17.27;15.47;;;;;;;9.29;65.88;95742.03;5031284;28;20281;-80
2021/04/19 07:51:27;;;;;;;18.03;16.03;;;;;;;9.42;65.86;95743.31;5030568;28;20209;-82
2021/04/19 07:54:14;;;;;;;20.40;16.80;;;;;;;9.46;64.92;95744.56;5031365;28;20198;-79
2021/04/19 07:56:42;;;;;;;19.57;16.87;;;;;;;9.50;64.45;95744.06;5025679;28;20202;-82
2021/04/19 07:59:22;;;;;;;20.27;16.90;;;;;;;9.52;64.46;95742.13;5030532;28;20194;-82
2021/04/19 08:01:59;;;;;;;20.63;16.73;;;;;;;9.57;64.91;95741.66;5031040;28;20194;-81
2021/04/19 08:04:25;;;;;;;19.27;16.50;;;;;;;9.68;64.69;95736.13;5030674;28;20673;-82
2021/04/19 08:06:52;;;;;;;20.57;15.73;;;;;;;9.81;64.03;95735.59;5030960;28;20206;-82
2021/04/19 08:09:22;;;;;;;16.70;14.90;;;;;;;9.92;62.90;95737.78;5029406;28;20222;-81
2021/04/19 08:11:50;;;;;;;18.07;15.33;;;;;;;10.12;63.38;95733.84;5030647;28;20226;-82
2021/04/19 08:14:16;;;;;;;17.40;15.30;;;;;;;10.30;62.13;95736.16;5031311;28;20978;-82
2021/04/19 08:16:42;;;;;;;17.30;15.50;;;;;;;10.31;62.39;95737.75;5031702;28;20202;-81
2021/04/19 08:19:09;;;;;;;16.53;14.83;;;;;;;10.42;62.81;95728.84;5029651;28;20688;-82
2021/04/19 08:21:35;;;;;;;16.67;14.60;;;;;;;10.45;61.52;95731.88;5030705;28;20194;-78
2021/04/19 08:24:12;;;;;;;17.93;15.10;;;;;;;10.56;60.34;95725.53;5029876;28;20206;-79
2021/04/19 08:26:49;;;;;;;16.43;14.73;;;;;;;10.77;60.41;95730.03;5024578;28;20328;-82
2021/04/19 08:29:36;;;;;;;15.37;13.57;;;;;;;10.97;59.43;95731.13;5029620;28;20221;-81
2021/04/19 08:32:03;;;;;;;17.67;14.03;;;;;;;11.21;59.13;95727.50;5030346;28;20209;-81
2021/04/19 08:34:30;;;;;;;16.50;14.10;;;;;;;11.36;59.34;95728.31;5031325;28;20199;-81
2021/04/19 08:36:59;;;;;;;14.70;13.20;;;;;;;11.65;57.79;95727.53;5030512;28;20217;-80
2021/04/19 08:39:25;;;;;;;17.20;14.30;;;;;;;11.71;57.11;95735.34;5031537;28;20209;-82
2021/04/19 08:41:52;;;;;;;15.17;13.63;;;;;;;11.73;57.26;95727.44;5030587;28;20581;-82
2021/04/19 08:44:21;;;;;;;15.77;13.80;;;;;;;11.56;58.28;95733.75;5029965;28;20345;-80
2021/04/19 08:46:47;;;;;;;15.33;13.77;;;;;;;11.35;58.76;95730.09;5031325;28;20208;-80
2021/04/19 08:49:15;;;;;;;16.47;14.27;;;;;;;11.35;58.23;95729.31;5030167;28;20221;-82
2021/04/19 08:51:42;;;;;;;16.30;13.53;;;;;;;11.25;58.11;95733.91;5029726;28;20209;-82
2021/04/19 08:54:09;;;;;;;14.80;13.27;;;;;;;11.25;59.11;95729.56;5028896;28;20206;-81
2021/04/19 08:56:35;;;;;;;15.23;13.27;;;;;;;11.28;59.91;95728.41;5030363;28;20241;-79
2021/04/19 08:59:02;;;;;;;15.13;13.13;;;;;;;11.32;59.12;95735.63;5029463;28;20201;-78
2021/04/19 09:01:29;;;;;;;15.37;13.80;;;;;;;11.35;59.54;95730.09;5025917;28;20194;-80
2021/04/19 09:04:03;;;;;;;15.77;14.07;;;;;;;11.07;58.13;95736.84;5030291;28;20205;-79
2021/04/19 09:06:39;;;;;;;16.13;13.47;;;;;;;11.04;58.17;95729.44;5023304;28;20218;-80
2021/04/19 09:09:07;;;;;;;16.30;13.87;;;;;;;11.10;58.89;95726.19;5029296;28;20222;-81
2021/04/19 09:11:33;;;;;;;15.47;13.87;;;;;;;11.12;58.65;95728.59;5028381;28;20221;-81
2021/04/19 09:14:04;;;;;;;16.50;13.90;;;;;;;11.09;58.76;95734.88;5028710;28;20194;-79
2021/04/19 09:16:34;;;;;;;15.67;12.17;;;;;;;10.91;58.07;95724.91;5032141;28;20249;-81
2021/04/19 09:19:00;;;;;;;14.87;12.17;;;;;;;10.94;58.33;95731.50;5033744;28;20229;-80
2021/04/19 09:21:38;;;;;;;13.87;12.20;;;;;;;11.17;57.61;95731.41;5033986;28;20206;-81
2021/04/19 09:24:06;;;;;;;13.60;11.80;;;;;;;11.62;56.54;95726.09;5033616;28;20213;-80
2021/04/19 09:26:47;;;;;;;13.63;12.03;;;;;;;11.95;54.21;95730.88;5033851;28;20249;-83
2021/04/19 09:29:43;;;;;;;13.60;12.20;;;;;;;12.15;52.65;95719.00;5032989;28;20217;-82
2021/04/19 09:32:18;;;;;;;14.87;12.63;;;;;;;12.16;53.01;95718.00;5033355;28;20190;-83
2021/04/19 09:34:46;;;;;;;13.47;12.07;;;;;;;12.58;54.18;95713.84;5034470;28;20225;-82
2021/04/19 09:37:16;;;;;;;12.67;11.33;;;;;;;12.97;52.42;95703.84;5034534;28;20198;-81
2021/04/19 09:39:49;;;;;;;13.00;11.63;;;;;;;13.00;52.31;95713.81;5035757;28;20264;-82
2021/04/19 09:43:03;;;;;;;11.50;10.37;;;;;;;12.87;51.96;95705.16;5034134;28;20670;-83
2021/04/19 09:45:51;;;;;;;11.77;9.90;;;;;;;12.60;51.55;95701.56;5027466;28;20268;-83
2021/04/19 09:48:46;;;;;;;11.80;9.27;;;;;;;12.54;52.32;95705.66;5034244;28;20234;-83
2021/04/19 09:51:16;;;;;;;12.97;10.73;;;;;;;12.49;53.24;95697.69;5032409;28;20225;-82
2021/04/19 09:53:56;;;;;;;13.20;10.67;;;;;;;12.42;52.87;95695.06;5034630;28;20233;-83
2021/04/19 09:56:29;;;;;;;11.87;10.70;;;;;;;12.23;52.87;95698.25;5034431;28;20233;-80
2021/04/19 09:59:11;;;;;;;12.23;11.03;;;;;;;12.13;53.29;95694.34;5034689;28;20190;-82
2021/04/19 10:01:38;;;;;;;15.40;10.87;;;;;;;12.10;54.12;95690.38;5028959;28;20292;-85
2021/04/19 10:04:05;;;;;;;11.37;9.77;;;;;;;12.41;54.11;95690.06;5033704;28;20203;-83
2021/04/19 10:06:43;;;;;;;11.60;10.03;;;;;;;12.74;52.52;95682.59;5033812;28;20218;-82
2021/04/19 10:09:13;;;;;;;11.23;10.13;;;;;;;13.16;51.93;95691.25;5032501;28;20221;-81
2021/04/19 10:11:44;;;;;;;11.17;10.07;;;;;;;13.45;52.46;95688.47;5032502;28;20804;-82
2021/04/19 10:14:13;;;;;;;13.50;11.60;;;;;;;13.32;52.18;95684.00;5033695;28;20244;-80
2021/04/19 10:16:44;;;;;;;13.60;12.07;;;;;;;13.04;52.46;95685.78;5033269;28;20289;-83
2021/04/19 10:19:10;;;;;;;12.77;11.47;;;;;;;12.80;53.79;95679.25;5032843;28;20673;-82
2021/04/19 10:21:38;;;;;;;13.60;12.17;;;;;;;12.58;54.73;95681.06;5040711;28;20217;-81
2021/04/19 10:24:12;;;;;;;14.07;12.43;;;;;;;12.46;54.96;95680.00;5032177;28;20194;-81
2021/04/19 10:26:39;;;;;;;14.00;12.50;;;;;;;12.18;55.38;95686.84;5032365;28;20213;-82
2021/04/19 10:29:15;;;;;;;16.23;13.17;;;;;;;12.06;55.65;95678.81;5031739;28;20221;-83
2021/04/19 10:31:54;;;;;;;13.80;12.40;;;;;;;12.12;55.31;95679.88;5032752;28;20198;-81
2021/04/19 10:34:24;;;;;;;14.00;12.60;;;;;;;12.37;55.74;95681.88;5032586;28;20284;-81
2021/04/19 10:36:52;;;;;;;13.83;12.40;;;;;;;12.67;55.05;95679.19;5032395;28;20202;-81
2021/04/19 10:39:21;;;;;;;13.70;12.30;;;;;;;13.02;54.81;95673.06;5032127;28;20228;-82
2021/04/19 10:41:49;;;;;;;13.73;12.30;;;;;;;13.20;53.60;95671.81;5032894;28;20197;-83
2021/04/19 10:44:25;;;;;;;13.13;11.77;;;;;;;13.02;52.80;95665.31;5032031;28;20202;-81
2021/04/19 10:46:55;;;;;;;13.33;11.87;;;;;;;13.12;52.35;95665.75;5032132;28;20336;-82
2021/04/19 10:49:23;;;;;;;13.37;11.97;;;;;;;13.24;52.21;95660.09;5031595;28;20826;-84
2021/04/19 10:51:52;;;;;;;13.33;11.60;;;;;;;13.30;52.55;95654.13;5033352;28;20206;-82
2021/04/19 10:54:18;;;;;;;12.10;10.90;;;;;;;13.30;51.96;95656.72;5032334;28;20443;-82
2021/04/19 10:56:44;;;;;;;12.50;10.97;;;;;;;13.35;51.27;95662.94;5030483;28;20206;-83
2021/04/19 10:59:12;;;;;;;11.47;10.27;;;;;;;13.62;51.55;95650.94;5032280;28;20202;-82
2021/04/19 11:01:41;;;;;;;11.03;9.93;;;;;;;13.95;49.92;95640.66;5031268;28;20207;-80
2021/04/19 11:04:09;;;;;;;12.00;10.80;;;;;;;14.14;49.96;95639.09;5031251;28;20198;-81
2021/04/19 11:06:36;;;;;;;11.13;10.03;;;;;;;14.17;49.13;95638.72;5032281;28;20232;-81
2021/04/19 11:09:04;;;;;;;9.90;9.00;;;;;;;13.75;46.74;95637.22;5031142;28;20689;-80
2021/04/19 11:11:42;;;;;;;10.20;9.17;;;;;;;13.60;48.16;95631.41;5023535;28;20221;-81
2021/04/19 11:14:13;;;;;;;9.27;8.37;;;;;;;13.52;48.00;95636.75;5026848;28;20284;-80
2021/04/19 11:17:07;;;;;;;8.60;7.80;;;;;;;13.39;47.89;95630.53;5031899;28;20218;-82
2021/04/19 11:19:41;;;;;;;9.03;8.13;;;;;;;13.33;48.53;95625.31;4976823;28;20194;-81
2021/04/19 11:22:24;;;;;;;10.77;9.33;;;;;;;13.12;49.62;95628.75;5030373;28;20198;-80
2021/04/19 11:24:51;;;;;;;9.43;8.53;;;;;;;13.06;50.76;95632.94;5030905;28;20225;-82
2021/04/19 11:27:22;;;;;;;9.07;8.17;;;;;;;13.04;49.58;95627.16;5030859;28;21522;-82
2021/04/19 11:29:48;;;;;;;12.10;8.60;;;;;;;13.01;50.13;95619.78;5031875;28;20949;-81
2021/04/19 11:32:30;;;;;;;9.53;8.53;;;;;;;12.93;49.75;95617.31;5030377;28;20186;-83
2021/04/19 11:34:56;;;;;;;9.83;8.83;;;;;;;12.80;50.83;95615.47;5030225;28;20214;-83